CheckWX is a tool to help pilots better visualize weather data.  It is not intended as a substitute for an official pre-flight weather briefing.

12:33:42 UTC

KENW TAF
Kenosha Regional Airport
Kenosha, Wisconsin, USA
KENW 041733Z 0418/0518 33011KT P6SM BKN015 FM042000 36010KT P6SM SCT020 FM042200 03010KT P6SM FEW200 FM050500 01003KT P6SM FEW250 FM051200 04004KT P6SM SCT180 FM051700 07008KT P6SM FEW250

Apr-4@
18:00 UTC

Apr-4 @ 18:00 UTC

Apr-4@
20:00 UTC

Apr-4 @ 20:00 UTC

TAF KENW 041733Z 0418/0518 33011KT P6SM BKN015

Expired

Wind
  • 330° at 11 KTS
Cloud Levels
  • Broken at 1,500' AGL

Apr-4@
20:00 UTC

Apr-4 @ 20:00 UTC

Apr-4@
22:00 UTC

Apr-4 @ 22:00 UTC

FM042000 36010KT P6SM SCT020

Expired

Wind
  • 360° at 10 KTS
Cloud Levels
  • Scattered at 2,000' AGL

Apr-4@
22:00 UTC

Apr-4 @ 22:00 UTC

Apr-5@
05:00 UTC

Apr-5 @ 05:00 UTC

FM042200 03010KT P6SM FEW200

Expired

Wind
  • 030° at 10 KTS
Cloud Levels
  • Few at 20,000' AGL

Apr-5@
05:00 UTC

Apr-5 @ 05:00 UTC

Apr-5@
12:00 UTC

Apr-5 @ 12:00 UTC

FM050500 01003KT P6SM FEW250

Expired

Wind
  • 010° at 3 KTS
Cloud Levels
  • Few at 25,000' AGL

Apr-5@
12:00 UTC

Apr-5 @ 12:00 UTC

Apr-5@
17:00 UTC

Apr-5 @ 17:00 UTC

FM051200 04004KT P6SM SCT180

From

From Standard forecast or significant change

Wind
  • 040° at 4 KTS
Cloud Levels
  • Scattered at 18,000' AGL

Apr-5@
17:00 UTC

Apr-5 @ 17:00 UTC

Apr-5@
18:00 UTC

Apr-5 @ 18:00 UTC

FM051700 07008KT P6SM FEW250

From

From Standard forecast or significant change

Wind
  • 070° at 8 KTS
Cloud Levels
  • Few at 25,000' AGL